createdAt,value
2018-07-08T00:01:40.133Z,59.90
2018-07-08T00:04:13.161Z,61.50
2018-07-08T00:06:46.218Z,58.80
2018-07-08T00:09:19.336Z,59.00
2018-07-08T00:11:53.594Z,60.20
2018-07-08T00:14:26.782Z,60.00
2018-07-08T00:16:59.785Z,60.30
2018-07-08T00:19:32.937Z,59.60
2018-07-08T00:22:05.980Z,59.10
2018-07-08T00:24:39.131Z,59.10
2018-07-08T00:27:13.901Z,58.50
2018-07-08T00:29:46.950Z,56.60
2018-07-08T00:32:19.863Z,57.00
2018-07-08T00:34:52.882Z,59.40
2018-07-08T00:37:26.065Z,54.60
2018-07-08T00:39:59.154Z,56.90
2018-07-08T00:42:32.053Z,57.50
2018-07-08T00:45:05.414Z,56.50
2018-07-08T00:47:38.443Z,56.90
2018-07-08T00:50:12.747Z,58.00
2018-07-08T00:52:45.812Z,58.20
2018-07-08T00:55:19.049Z,59.40
2018-07-08T00:57:52.108Z,58.90
2018-07-08T01:00:38.890Z,59.30
2018-07-08T01:03:12.040Z,57.20
2018-07-08T01:05:45.163Z,54.80
2018-07-08T01:08:18.256Z,53.90
2018-07-08T01:10:51.275Z,53.00
2018-07-08T01:13:24.184Z,51.90
2018-07-08T01:15:57.223Z,52.10
2018-07-08T01:18:30.344Z,52.00
2018-07-08T01:21:03.497Z,50.00
2018-07-08T01:23:37.359Z,50.50
2018-07-08T01:26:15.789Z,53.00
2018-07-08T01:28:48.836Z,53.00
2018-07-08T01:31:21.948Z,52.40
2018-07-08T01:33:55.410Z,50.80
2018-07-08T01:36:28.482Z,53.20
2018-07-08T01:39:01.533Z,51.70
2018-07-08T01:41:34.698Z,54.10
2018-07-08T01:44:07.824Z,51.40
2018-07-08T01:46:40.846Z,50.90
2018-07-08T01:49:13.866Z,51.20
2018-07-08T01:51:46.985Z,52.50
2018-07-08T01:54:19.953Z,52.90
2018-07-08T01:56:53.132Z,51.30
2018-07-08T01:59:26.266Z,51.70
2018-07-08T02:01:59.337Z,50.30
2018-07-08T02:04:35.244Z,51.00
2018-07-08T02:07:08.424Z,53.70
2018-07-08T02:09:41.464Z,54.10
2018-07-08T02:12:14.381Z,50.40
2018-07-08T02:17:39.369Z,50.30
2018-07-08T02:20:12.421Z,49.30
2018-07-08T02:22:45.407Z,48.20
2018-07-08T02:25:18.395Z,47.60
2018-07-08T02:27:51.420Z,47.60
2018-07-08T02:30:24.409Z,47.90
2018-07-08T02:32:57.406Z,48.80
2018-07-08T02:35:30.725Z,53.10
2018-07-08T02:38:04.764Z,55.50
2018-07-08T02:40:38.703Z,57.80
2018-07-08T02:43:11.777Z,63.10
2018-07-08T02:45:44.715Z,63.70
2018-07-08T02:48:18.348Z,64.20
2018-07-08T02:50:51.355Z,66.10
2018-07-08T02:53:24.818Z,66.20
2018-07-08T02:55:57.699Z,68.80
2018-07-08T02:58:30.711Z,70.60
2018-07-08T03:01:03.738Z,72.70
2018-07-08T03:03:36.928Z,73.90
2018-07-08T03:06:09.955Z,73.30
2018-07-08T03:08:43.039Z,74.00
2018-07-08T03:11:16.148Z,74.90
2018-07-08T03:13:49.462Z,73.50
2018-07-08T03:16:22.450Z,74.80
2018-07-08T03:18:55.466Z,75.90
2018-07-08T03:21:28.581Z,77.90
2018-07-08T03:24:01.698Z,78.90
2018-07-08T03:26:34.625Z,77.40
2018-07-08T03:29:07.687Z,78.30
2018-07-08T03:31:40.806Z,79.60
2018-07-08T03:34:14.777Z,79.30
2018-07-08T03:36:47.654Z,79.80
2018-07-08T03:39:20.775Z,81.40
2018-07-08T03:41:53.860Z,83.20
2018-07-08T03:44:26.856Z,83.30
2018-07-08T03:46:59.839Z,85.00
2018-07-08T03:49:32.895Z,85.20
2018-07-08T03:52:05.855Z,86.50
2018-07-08T03:54:38.786Z,87.10
2018-07-08T03:57:11.722Z,88.70
2018-07-08T03:59:44.720Z,88.80
2018-07-08T04:02:17.644Z,89.40
2018-07-08T04:04:50.616Z,90.00
2018-07-08T04:07:23.549Z,90.40
2018-07-08T04:09:58.197Z,90.00
2018-07-08T04:12:31.366Z,90.40
2018-07-08T04:15:04.481Z,90.30
2018-07-08T04:17:37.646Z,90.60
2018-07-08T04:20:10.706Z,91.00
2018-07-08T04:22:43.782Z,91.20
2018-07-08T04:25:16.791Z,91.40
2018-07-08T04:27:49.687Z,92.10
2018-07-08T04:30:22.787Z,92.00
2018-07-08T04:32:55.842Z,92.30
2018-07-08T04:35:29.145Z,92.90
2018-07-08T04:38:02.173Z,92.60
2018-07-08T04:40:35.182Z,92.80
2018-07-08T04:43:08.120Z,92.90
2018-07-08T04:45:41.173Z,92.90
2018-07-08T04:48:14.072Z,93.00
2018-07-08T04:50:47.083Z,93.30
2018-07-08T04:53:20.073Z,93.20
2018-07-08T04:55:53.107Z,93.40
2018-07-08T04:58:26.133Z,93.80
2018-07-08T05:00:59.128Z,93.80
2018-07-08T05:03:32.174Z,94.20
2018-07-08T05:06:05.293Z,94.20
2018-07-08T05:08:38.281Z,94.20
2018-07-08T05:11:11.190Z,94.50
2018-07-08T05:13:44.186Z,94.90
2018-07-08T05:16:17.348Z,94.70
2018-07-08T05:18:50.381Z,95.20
2018-07-08T05:21:23.367Z,95.40
2018-07-08T05:23:56.431Z,95.50
2018-07-08T05:26:29.539Z,95.50
2018-07-08T05:29:03.109Z,95.50
2018-07-08T05:31:36.187Z,96.00
2018-07-08T05:34:09.284Z,95.80
2018-07-08T05:36:42.331Z,96.00
2018-07-08T05:39:15.234Z,95.90
2018-07-08T05:41:51.234Z,96.30
2018-07-08T05:44:24.533Z,96.40
2018-07-08T05:46:57.592Z,96.40
2018-07-08T05:49:30.721Z,96.50
2018-07-08T05:52:04.581Z,96.70
2018-07-08T05:54:37.604Z,96.80
2018-07-08T05:57:10.685Z,97.20
2018-07-08T05:59:43.736Z,97.50
2018-07-08T06:02:17.261Z,97.70
2018-07-08T06:04:50.297Z,97.90
2018-07-08T06:07:23.398Z,97.80
2018-07-08T06:09:56.378Z,98.00
2018-07-08T06:12:29.320Z,98.10
2018-07-08T06:15:02.340Z,98.20
2018-07-08T06:17:36.379Z,97.60
2018-07-08T06:20:13.007Z,97.70
2018-07-08T06:22:46.214Z,97.80
2018-07-08T06:25:19.368Z,97.70
2018-07-08T06:27:52.281Z,97.70
2018-07-08T06:30:25.403Z,97.60
2018-07-08T06:32:58.604Z,97.30
2018-07-08T06:35:31.813Z,97.50
2018-07-08T06:38:04.869Z,97.80
2018-07-08T06:40:37.983Z,97.80
2018-07-08T06:43:11.037Z,97.80
2018-07-08T06:45:43.978Z,97.90
2018-07-08T06:48:17.197Z,97.90
2018-07-08T06:50:50.219Z,98.10
2018-07-08T06:53:23.337Z,98.20
2018-07-08T06:55:56.258Z,98.20
2018-07-08T06:58:29.328Z,98.40
2018-07-08T07:01:02.427Z,98.20
2018-07-08T07:03:36.308Z,98.40
2018-07-08T07:06:09.909Z,98.30
2018-07-08T07:08:42.933Z,98.50
2018-07-08T07:11:15.862Z,98.60
2018-07-08T07:13:48.944Z,98.60
2018-07-08T07:16:22.054Z,98.60
2018-07-08T07:18:55.060Z,98.70
2018-07-08T07:21:28.090Z,98.80
2018-07-08T07:24:01.190Z,98.90
2018-07-08T07:26:34.216Z,99.00
2018-07-08T07:29:07.337Z,99.10
2018-07-08T07:31:40.278Z,98.90
2018-07-08T07:34:13.302Z,99.10
2018-07-08T07:36:46.330Z,99.40
2018-07-08T07:39:19.314Z,99.50
2018-07-08T07:41:52.253Z,99.90
2018-07-08T07:44:25.213Z,99.90
2018-07-08T15:41:33.933Z,95.60
2018-07-08T15:44:07.114Z,96.20
2018-07-08T15:46:40.204Z,96.00
2018-07-08T15:49:13.339Z,96.20
2018-07-08T15:51:46.427Z,96.50
2018-07-08T15:54:19.443Z,96.30
2018-07-08T15:56:52.509Z,96.50
2018-07-08T15:59:25.481Z,97.20
2018-07-08T16:01:58.617Z,97.20
2018-07-08T16:04:31.651Z,96.90
2018-07-08T16:07:04.722Z,97.70
2018-07-08T16:09:37.866Z,98.00
2018-07-08T16:12:10.922Z,97.50
2018-07-08T16:14:44.100Z,98.00
2018-07-08T16:17:17.191Z,98.20
2018-07-08T16:19:50.334Z,98.20
2018-07-08T16:22:24.098Z,98.00
2018-07-08T16:24:57.505Z,97.90
2018-07-08T16:27:30.555Z,96.80
2018-07-08T16:30:03.697Z,97.00
2018-07-08T16:32:37.291Z,97.30
2018-07-08T16:35:10.426Z,97.40
2018-07-08T16:37:43.495Z,97.30
2018-07-08T16:40:17.962Z,97.50
2018-07-08T16:42:51.118Z,97.10
2018-07-08T16:45:24.274Z,97.50
2018-07-08T16:47:58.017Z,96.90
2018-07-08T16:50:31.060Z,96.90
2018-07-08T16:53:04.139Z,96.90
2018-07-08T16:55:37.125Z,96.30
2018-07-08T16:58:10.317Z,96.20
2018-07-08T17:00:43.430Z,95.80
2018-07-08T17:03:16.645Z,95.80
2018-07-08T17:05:49.664Z,95.60
2018-07-08T17:08:22.820Z,95.80
2018-07-08T17:10:55.987Z,96.00
2018-07-08T17:13:29.037Z,95.90
2018-07-08T17:16:02.123Z,95.60
2018-07-08T17:18:35.303Z,95.40
2018-07-08T17:21:08.517Z,94.90
2018-07-08T17:23:41.531Z,94.70
2018-07-08T17:26:14.795Z,94.70
2018-07-08T17:28:47.839Z,94.10
2018-07-08T17:31:21.008Z,94.30
2018-07-08T17:33:54.165Z,94.00
2018-07-08T17:36:27.586Z,93.40
2018-07-08T17:39:00.652Z,93.00
2018-07-08T17:41:33.640Z,93.70
2018-07-08T17:44:07.456Z,93.30
2018-07-08T17:46:40.601Z,93.10
2018-07-08T17:49:13.598Z,92.90
2018-07-08T17:51:46.781Z,93.50
2018-07-08T17:54:20.948Z,92.90
2018-07-08T17:56:54.687Z,92.50
2018-07-08T17:59:27.906Z,92.10
2018-07-08T18:02:00.928Z,91.40
2018-07-08T18:04:34.052Z,90.70
2018-07-08T18:07:07.516Z,91.20
2018-07-08T18:09:40.808Z,91.10
2018-07-08T18:12:15.010Z,91.20
2018-07-08T18:14:48.169Z,89.10
2018-07-08T18:17:21.234Z,90.10
2018-07-08T18:19:54.438Z,90.50
2018-07-08T18:22:27.556Z,89.80
2018-07-08T18:25:00.988Z,88.60
2018-07-08T18:27:34.030Z,88.20
2018-07-08T18:30:07.141Z,87.80
2018-07-08T18:32:40.155Z,86.10
2018-07-08T18:35:13.342Z,86.30
2018-07-08T18:37:46.574Z,87.30
2018-07-08T18:40:19.825Z,85.70
2018-07-08T18:42:53.042Z,86.10
2018-07-08T18:45:26.237Z,86.70
2018-07-08T18:47:59.404Z,84.30
2018-07-08T18:50:32.517Z,87.70
2018-07-08T18:53:05.567Z,89.50
2018-07-08T18:55:38.573Z,89.60
2018-07-08T18:58:11.775Z,90.50
2018-07-08T19:00:44.833Z,87.80
2018-07-08T19:03:17.914Z,88.80
2018-07-08T19:05:50.877Z,89.30
2018-07-08T19:08:23.912Z,87.90
2018-07-08T19:10:57.108Z,83.90
2018-07-08T19:13:30.166Z,83.00
2018-07-08T19:16:03.354Z,83.90
2018-07-08T19:18:36.575Z,81.10
2018-07-08T19:21:09.688Z,81.40
2018-07-08T19:23:42.792Z,81.00
2018-07-08T19:26:15.887Z,80.00
2018-07-08T19:28:48.991Z,77.30
2018-07-08T19:31:22.274Z,78.80
2018-07-08T19:33:55.212Z,77.40
2018-07-08T19:36:28.319Z,78.70
2018-07-08T19:39:01.610Z,81.20
2018-07-08T19:41:34.706Z,77.90
2018-07-08T19:44:07.796Z,77.70
2018-07-08T19:46:40.780Z,78.50
2018-07-08T19:49:13.806Z,78.50
2018-07-08T19:51:46.988Z,81.00
2018-07-08T19:54:20.497Z,79.70
2018-07-08T19:56:53.696Z,78.00
2018-07-08T19:59:26.928Z,77.60
2018-07-08T20:02:00.043Z,79.30
2018-07-08T20:04:33.108Z,78.60
2018-07-08T20:07:06.464Z,79.10
2018-07-08T20:09:39.654Z,76.70
2018-07-08T20:12:12.634Z,77.10
2018-07-08T20:14:45.829Z,76.90
2018-07-08T20:17:18.859Z,75.80
2018-07-08T20:19:52.421Z,76.70
2018-07-08T20:22:25.601Z,76.50
2018-07-08T20:24:58.880Z,76.50
2018-07-08T20:27:31.927Z,78.70
2018-07-08T20:30:05.100Z,77.80
2018-07-08T20:32:38.360Z,78.00
2018-07-08T20:35:12.549Z,76.20
2018-07-08T20:37:45.753Z,75.80
2018-07-08T20:40:18.808Z,76.90
2018-07-08T20:42:51.999Z,75.90
2018-07-08T20:45:25.128Z,75.40
2018-07-08T20:47:58.450Z,74.30
2018-07-08T20:50:31.481Z,74.10
2018-07-08T20:53:04.530Z,75.30
2018-07-08T20:55:37.581Z,77.90
2018-07-08T20:58:10.540Z,76.80
2018-07-08T21:00:43.546Z,77.00
2018-07-08T21:03:16.790Z,78.80
2018-07-08T21:05:49.955Z,75.90
2018-07-08T21:08:23.139Z,74.10
2018-07-08T21:10:56.336Z,73.10
2018-07-08T21:13:29.601Z,75.50
2018-07-08T21:16:02.692Z,72.80
2018-07-08T21:18:35.770Z,76.80
2018-07-08T21:21:08.975Z,74.50
2018-07-08T21:23:42.165Z,72.70
2018-07-08T21:26:15.275Z,71.80
2018-07-08T21:28:48.424Z,72.20
2018-07-08T21:31:21.907Z,73.00
2018-07-08T21:33:55.048Z,72.30
2018-07-08T21:36:28.176Z,73.50
2018-07-08T21:39:01.349Z,74.40
2018-07-08T21:41:34.471Z,72.20
2018-07-08T21:44:07.570Z,71.20
2018-07-08T21:46:40.607Z,72.40
2018-07-08T21:49:13.758Z,72.00
2018-07-08T21:51:46.833Z,73.10
2018-07-08T21:54:19.928Z,73.10
2018-07-08T21:56:53.790Z,71.60
2018-07-08T21:59:26.846Z,69.40
2018-07-08T22:02:07.308Z,71.10
2018-07-08T22:04:40.462Z,69.10
2018-07-08T22:07:17.479Z,69.90
2018-07-08T22:09:50.570Z,73.20
2018-07-08T22:12:23.583Z,72.60
2018-07-08T22:14:56.654Z,70.00
2018-07-08T22:17:30.457Z,70.30
2018-07-08T22:20:03.567Z,69.60
2018-07-08T22:22:36.769Z,71.20
2018-07-08T22:25:09.949Z,67.00
2018-07-08T22:27:43.010Z,66.70
2018-07-08T22:30:16.239Z,68.30
2018-07-08T22:32:49.372Z,66.40
2018-07-08T22:35:22.440Z,66.20
2018-07-08T22:37:55.542Z,68.30
2018-07-08T22:40:28.755Z,64.50
2018-07-08T22:43:01.808Z,67.40
2018-07-08T22:45:38.086Z,63.20
2018-07-08T22:48:11.263Z,61.90
2018-07-08T22:50:44.254Z,64.40
2018-07-08T22:53:17.374Z,61.00
2018-07-08T22:55:50.333Z,62.40
2018-07-08T22:58:23.433Z,63.90
2018-07-08T23:01:05.472Z,62.50
2018-07-08T23:03:55.397Z,61.40
2018-07-08T23:06:28.530Z,57.50
2018-07-08T23:09:01.642Z,57.00
2018-07-08T23:11:34.674Z,57.30
2018-07-08T23:14:07.806Z,58.40
2018-07-08T23:16:41.067Z,56.90
2018-07-08T23:19:14.267Z,56.70
2018-07-08T23:21:47.345Z,54.70
2018-07-08T23:24:20.478Z,54.40
2018-07-08T23:26:53.704Z,55.90
2018-07-08T23:29:27.464Z,55.00
2018-07-08T23:32:00.676Z,55.30
2018-07-08T23:34:33.818Z,55.70
2018-07-08T23:37:06.970Z,56.90
2018-07-08T23:39:40.010Z,56.10
2018-07-08T23:42:13.074Z,55.90
2018-07-08T23:44:46.129Z,57.00
2018-07-08T23:47:19.467Z,57.50
2018-07-08T23:49:52.716Z,58.60
2018-07-08T23:52:25.938Z,58.80
2018-07-08T23:54:58.911Z,60.80
2018-07-08T23:57:32.105Z,59.20
